• location
  • image
Airport

AP V2 EN

 

 

Click here to view short presentation ->

Today

Friday, 25 July 2014

Weather Forecast

Siauliai 27 °C
   

Aviation Weather Forecast

[source: ADDS]
METAR
EYSA 250950Z 05008KT 010V100 9999 FEW045 27/15 Q1021 NOSIG =
TAF
TAF EYSA 250800Z 2509/2518 29010KT 9000 NSC PROB40 TEMPO 2513/2517 BKN035CB =
SR / SS: 02:25 / 18:43 UTC (EYSA 2014-07-25)

Who's Online

We have 3 guests online

tic logo en